Time;durP1;ratioP1;P1;durP2;ratioP2;P2;SDS_P1;SDS_P2;PMS_P1;PMS_P2;Temp;Humidity;BMP_temperature;BMP_pressure;BME280_temperature;BME280_humidity;BME280_pressure;Samples;Min_cycle;Max_cycle;Signal;HPM_P1;HPM_P2
2021/05/30 00:01:51;;;;;;;54.00;27.88;;;;;;;;;;5024801;28;20025;-72
2021/05/30 00:04:18;;;;;;;48.00;26.55;;;;;;;;;;5019562;28;20042;-72
2021/05/30 00:06:44;;;;;;;57.22;29.20;;;;;;;;;;5030670;28;20034;-72
2021/05/30 00:09:10;;;;;;;57.15;29.23;;;;;;;;;;5021477;28;20028;-71
2021/05/30 00:11:36;;;;;;;57.10;27.75;;;;;;;;;;5030253;28;20024;-71
2021/05/30 00:14:03;;;;;;;56.83;28.48;;;;;;;;;;5026800;28;20017;-71
2021/05/30 00:16:29;;;;;;;50.78;27.00;;;;;;;;;;5031764;28;20040;-71
2021/05/30 00:18:55;;;;;;;58.25;27.20;;;;;;;;;;5030252;28;20108;-72
2021/05/30 00:21:21;;;;;;;62.92;28.38;;;;;;;;;;5030999;28;20097;-72
2021/05/30 00:23:48;;;;;;;52.33;27.48;;;;;;;;;;5029070;28;20021;-73
2021/05/30 00:26:14;;;;;;;57.55;27.42;;;;;;;;;;5028202;28;20037;-72
2021/05/30 00:28:40;;;;;;;55.72;27.70;;;;;;;;;;5024290;28;20034;-72
2021/05/30 00:31:06;;;;;;;47.65;26.77;;;;;;;;;;5017693;28;20038;-72
2021/05/30 00:33:32;;;;;;;58.38;28.90;;;;;;;;;;5023158;28;20025;-72
2021/05/30 00:35:58;;;;;;;46.30;26.52;;;;;;;;;;5030856;28;20018;-72
2021/05/30 00:38:24;;;;;;;49.30;26.27;;;;;;;;;;5023170;28;20029;-72
2021/05/30 00:40:52;;;;;;;49.00;28.63;;;;;;;;;;5029850;28;20401;-72
2021/05/30 00:43:18;;;;;;;49.30;26.95;;;;;;;;;;5026760;28;20615;-72
2021/05/30 00:45:45;;;;;;;46.95;24.55;;;;;;;;;;5029931;28;20028;-71
2021/05/30 00:48:11;;;;;;;52.50;26.23;;;;;;;;;;5029046;28;20029;-72
2021/05/30 00:50:38;;;;;;;44.25;25.83;;;;;;;;;;5031212;28;20036;-72
2021/05/30 00:53:05;;;;;;;45.13;25.35;;;;;;;;;;5027088;28;20562;-72
2021/05/30 00:55:32;;;;;;;48.92;27.52;;;;;;;;;;5025587;28;20259;-72
2021/05/30 00:57:58;;;;;;;44.00;24.58;;;;;;;;;;5027141;28;20025;-71
2021/05/30 01:00:24;;;;;;;42.30;25.58;;;;;;;;;;5031615;28;20040;-71
2021/05/30 01:02:50;;;;;;;43.97;24.77;;;;;;;;;;5024954;28;20032;-71
2021/05/30 01:05:16;;;;;;;44.10;24.58;;;;;;;;;;5021428;28;20038;-72
2021/05/30 01:07:45;;;;;;;45.47;23.92;;;;;;;;;;5013840;28;20037;-71
2021/05/30 01:10:18;;;;;;;46.28;24.00;;;;;;;;;;5028952;28;20037;-71
2021/05/30 01:12:45;;;;;;;47.83;23.88;;;;;;;;;;5026857;28;20025;-72
2021/05/30 01:15:11;;;;;;;45.45;26.10;;;;;;;;;;5024133;28;20037;-72
2021/05/30 01:17:37;;;;;;;45.92;25.85;;;;;;;;;;5028009;28;20033;-71
2021/05/30 01:20:04;;;;;;;46.25;25.90;;;;;;;;;;5030097;28;20037;-71
2021/05/30 01:22:35;;;;;;;49.17;25.67;;;;;;;;;;5028991;28;20496;-72
2021/05/30 01:25:01;;;;;;;48.30;26.50;;;;;;;;;;5027528;28;20064;-72
2021/05/30 01:27:27;;;;;;;49.33;26.45;;;;;;;;;;5029430;28;20029;-72
2021/05/30 01:29:53;;;;;;;53.25;27.55;;;;;;;;;;5022504;28;20029;-72
2021/05/30 01:32:19;;;;;;;44.53;25.67;;;;;;;;;;5028523;28;20148;-71
2021/05/30 01:34:45;;;;;;;54.45;28.65;;;;;;;;;;5029032;28;20026;-72
2021/05/30 01:37:11;;;;;;;52.88;28.52;;;;;;;;;;5027392;28;20108;-71
2021/05/30 01:39:37;;;;;;;49.22;26.58;;;;;;;;;;5026061;28;20065;-72
2021/05/30 01:42:03;;;;;;;49.78;27.27;;;;;;;;;;5018569;28;20034;-72
2021/05/30 01:44:30;;;;;;;51.67;27.02;;;;;;;;;;5025783;28;20076;-72
2021/05/30 01:46:56;;;;;;;50.53;28.55;;;;;;;;;;5024948;28;20069;-72
2021/05/30 01:49:22;;;;;;;58.60;30.95;;;;;;;;;;5026438;28;20037;-71
2021/05/30 01:51:48;;;;;;;56.17;27.15;;;;;;;;;;5020330;28;20029;-71
2021/05/30 01:54:16;;;;;;;62.55;31.08;;;;;;;;;;5022932;28;20036;-72
2021/05/30 01:56:57;;;;;;;55.47;29.58;;;;;;;;;;5024828;28;20025;-72
2021/05/30 01:59:24;;;;;;;59.95;29.85;;;;;;;;;;5025146;28;20025;-72
2021/05/30 02:01:51;;;;;;;52.72;28.45;;;;;;;;;;5029728;28;20075;-72
2021/05/30 02:04:19;;;;;;;53.53;26.23;;;;;;;;;;5026316;28;20042;-72
2021/05/30 02:06:46;;;;;;;59.92;31.90;;;;;;;;;;5023624;28;20441;-72
2021/05/30 02:09:12;;;;;;;62.38;29.80;;;;;;;;;;5028181;28;20017;-71
2021/05/30 02:11:39;;;;;;;55.10;31.67;;;;;;;;;;5028006;28;20021;-71
2021/05/30 02:14:05;;;;;;;57.05;30.23;;;;;;;;;;5026146;28;20044;-72
2021/05/30 02:16:31;;;;;;;61.97;30.80;;;;;;;;;;5028776;28;20056;-72
2021/05/30 02:18:58;;;;;;;54.03;28.50;;;;;;;;;;5028816;28;20084;-72
2021/05/30 02:21:24;;;;;;;59.42;29.55;;;;;;;;;;5025972;28;20022;-71
2021/05/30 02:23:50;;;;;;;55.80;29.23;;;;;;;;;;5017729;28;20033;-72
2021/05/30 02:26:16;;;;;;;61.38;32.15;;;;;;;;;;5029824;28;20029;-72
2021/05/30 02:28:42;;;;;;;65.85;32.95;;;;;;;;;;5016748;28;20116;-71
2021/05/30 02:31:08;;;;;;;60.97;31.00;;;;;;;;;;5023762;28;20034;-71
2021/05/30 02:33:35;;;;;;;60.30;30.23;;;;;;;;;;5028231;28;20045;-71
2021/05/30 02:36:01;;;;;;;55.63;28.02;;;;;;;;;;5027562;28;20068;-71
2021/05/30 02:38:27;;;;;;;56.88;30.20;;;;;;;;;;5029878;28;20037;-71
2021/05/30 02:40:53;;;;;;;60.35;31.30;;;;;;;;;;5041721;28;20036;-71
2021/05/30 02:43:21;;;;;;;55.10;30.25;;;;;;;;;;5013805;28;20032;-71
2021/05/30 02:45:47;;;;;;;52.67;26.95;;;;;;;;;;5022339;28;20036;-71
2021/05/30 02:48:13;;;;;;;49.97;27.95;;;;;;;;;;5019377;28;20497;-71
2021/05/30 02:50:39;;;;;;;51.78;26.25;;;;;;;;;;5022582;28;20030;-71
2021/05/30 02:53:05;;;;;;;53.28;25.33;;;;;;;;;;5029431;28;20492;-71
2021/05/30 02:55:31;;;;;;;47.47;24.33;;;;;;;;;;5024552;28;20029;-72
2021/05/30 02:57:57;;;;;;;47.80;25.48;;;;;;;;;;5022549;28;20022;-71
2021/05/30 03:00:23;;;;;;;48.67;27.23;;;;;;;;;;5014289;28;20080;-71
2021/05/30 03:02:49;;;;;;;51.53;26.63;;;;;;;;;;5009805;28;20025;-71
2021/05/30 03:05:16;;;;;;;53.13;27.00;;;;;;;;;;5021003;28;20049;-71
2021/05/30 03:07:43;;;;;;;51.47;25.15;;;;;;;;;;5023338;28;20501;-71
2021/05/30 03:10:09;;;;;;;48.15;24.02;;;;;;;;;;5018345;28;20037;-71
2021/05/30 03:12:35;;;;;;;48.63;24.70;;;;;;;;;;5018865;28;20029;-71
2021/05/30 03:15:01;;;;;;;45.25;23.83;;;;;;;;;;5024326;28;20022;-71
2021/05/30 03:17:27;;;;;;;47.33;25.27;;;;;;;;;;5031037;28;20026;-71
2021/05/30 03:19:53;;;;;;;52.83;26.30;;;;;;;;;;5031726;28;20038;-71
2021/05/30 03:22:20;;;;;;;57.45;28.83;;;;;;;;;;5030093;28;20115;-71
2021/05/30 03:24:47;;;;;;;64.85;27.98;;;;;;;;;;5028104;28;20049;-71
2021/05/30 03:27:13;;;;;;;63.53;30.77;;;;;;;;;;5030202;28;20083;-71
2021/05/30 03:29:39;;;;;;;70.82;32.10;;;;;;;;;;5027481;28;20092;-71
2021/05/30 03:32:05;;;;;;;64.15;31.55;;;;;;;;;;5023254;28;20033;-71
2021/05/30 03:34:31;;;;;;;71.88;33.95;;;;;;;;;;5020210;28;20459;-71
2021/05/30 03:36:58;;;;;;;68.63;33.40;;;;;;;;;;5024639;28;20405;-71
2021/05/30 03:39:28;;;;;;;72.32;31.27;;;;;;;;;;5027384;28;20030;-72
2021/05/30 03:41:55;;;;;;;75.35;33.65;;;;;;;;;;5030124;28;20029;-71
2021/05/30 03:44:21;;;;;;;71.20;33.90;;;;;;;;;;5020422;28;20026;-71
2021/05/30 03:46:47;;;;;;;68.15;30.48;;;;;;;;;;5027354;28;20048;-71
2021/05/30 03:49:13;;;;;;;69.60;31.10;;;;;;;;;;5027698;28;20080;-71
2021/05/30 03:51:39;;;;;;;70.85;34.30;;;;;;;;;;5021772;28;20080;-72
2021/05/30 03:54:05;;;;;;;69.65;34.35;;;;;;;;;;5018389;28;20037;-71
2021/05/30 03:56:31;;;;;;;71.30;31.05;;;;;;;;;;5023797;28;20028;-71
2021/05/30 03:58:57;;;;;;;75.72;34.25;;;;;;;;;;5024943;28;20084;-71
2021/05/30 04:01:23;;;;;;;73.47;32.55;;;;;;;;;;5030643;28;20484;-71
2021/05/30 04:03:49;;;;;;;71.78;35.72;;;;;;;;;;5030785;28;20052;-71
2021/05/30 04:06:17;;;;;;;76.93;35.78;;;;;;;;;;5020292;28;20584;-71
2021/05/30 04:08:43;;;;;;;65.63;31.95;;;;;;;;;;5032004;28;20029;-71
2021/05/30 04:11:09;;;;;;;72.88;33.70;;;;;;;;;;5030748;28;20323;-71
2021/05/30 04:13:35;;;;;;;74.80;34.88;;;;;;;;;;5024739;28;20030;-71
2021/05/30 04:16:01;;;;;;;73.15;33.42;;;;;;;;;;5023233;28;20029;-71
2021/05/30 04:18:27;;;;;;;74.40;36.35;;;;;;;;;;5030067;28;20026;-71
2021/05/30 04:20:53;;;;;;;68.05;33.33;;;;;;;;;;5025960;28;20030;-71
2021/05/30 04:23:19;;;;;;;61.75;31.00;;;;;;;;;;5018381;28;20033;-71
2021/05/30 04:25:45;;;;;;;65.03;33.88;;;;;;;;;;5027208;28;20074;-73
2021/05/30 04:28:11;;;;;;;64.10;32.92;;;;;;;;;;5030217;28;20021;-69
2021/05/30 04:30:38;;;;;;;70.20;30.92;;;;;;;;;;5023618;28;20504;-71
2021/05/30 04:33:04;;;;;;;67.45;31.58;;;;;;;;;;5024904;28;20022;-70
2021/05/30 04:35:30;;;;;;;63.80;31.90;;;;;;;;;;5017929;28;20108;-70
2021/05/30 04:37:56;;;;;;;65.38;31.83;;;;;;;;;;5021448;28;20071;-71
2021/05/30 04:40:25;;;;;;;69.03;32.10;;;;;;;;;;5020018;28;20080;-71
2021/05/30 04:42:52;;;;;;;68.35;32.80;;;;;;;;;;5030285;28;20030;-71
2021/05/30 04:45:18;;;;;;;65.32;32.60;;;;;;;;;;5029134;28;20034;-71
2021/05/30 04:47:44;;;;;;;58.75;28.85;;;;;;;;;;5029057;28;20124;-71
2021/05/30 04:50:11;;;;;;;53.03;28.67;;;;;;;;;;5016793;28;20029;-71
2021/05/30 04:52:37;;;;;;;63.55;30.90;;;;;;;;;;5015189;28;20022;-71
2021/05/30 04:55:03;;;;;;;54.53;29.45;;;;;;;;;;5020915;28;20024;-70
2021/05/30 04:57:29;;;;;;;52.75;29.73;;;;;;;;;;5026294;28;20077;-71
2021/05/30 04:59:55;;;;;;;50.42;29.25;;;;;;;;;;5018840;28;20034;-71
2021/05/30 05:02:21;;;;;;;51.50;28.58;;;;;;;;;;5029780;28;20037;-72
2021/05/30 05:04:47;;;;;;;45.97;27.85;;;;;;;;;;5021275;28;20061;-70
2021/05/30 05:07:13;;;;;;;47.95;26.63;;;;;;;;;;5012459;28;20113;-72
2021/05/30 05:09:39;;;;;;;50.70;28.35;;;;;;;;;;5013793;28;20030;-71
2021/05/30 05:12:06;;;;;;;46.47;27.10;;;;;;;;;;5011147;28;20049;-72
2021/05/30 05:14:32;;;;;;;43.55;27.50;;;;;;;;;;5014727;28;20022;-71
2021/05/30 05:16:58;;;;;;;49.75;29.27;;;;;;;;;;5029619;28;20033;-72
2021/05/30 05:19:24;;;;;;;48.55;29.23;;;;;;;;;;5026277;28;20021;-71
2021/05/30 05:21:50;;;;;;;45.65;27.63;;;;;;;;;;5030227;28;20083;-71
2021/05/30 05:24:16;;;;;;;48.47;30.20;;;;;;;;;;5026389;28;20034;-71
2021/05/30 05:26:42;;;;;;;51.28;29.17;;;;;;;;;;5013228;28;20034;-71
2021/05/30 05:29:08;;;;;;;52.53;29.38;;;;;;;;;;5017815;28;20109;-71
2021/05/30 05:31:34;;;;;;;53.00;29.23;;;;;;;;;;5020440;28;20042;-71
2021/05/30 05:34:00;;;;;;;49.17;29.30;;;;;;;;;;5021887;28;20028;-71
2021/05/30 05:36:26;;;;;;;48.45;30.30;;;;;;;;;;5030925;28;20026;-70
2021/05/30 05:38:52;;;;;;;50.55;29.38;;;;;;;;;;5030853;28;20037;-70
2021/05/30 05:41:18;;;;;;;54.60;30.13;;;;;;;;;;5030066;28;20092;-70
2021/05/30 05:43:44;;;;;;;43.00;28.42;;;;;;;;;;5021154;28;20470;-71
2021/05/30 05:46:11;;;;;;;49.05;28.48;;;;;;;;;;5020821;28;20080;-71
2021/05/30 05:48:37;;;;;;;51.17;29.90;;;;;;;;;;5023458;28;20663;-71
2021/05/30 05:51:03;;;;;;;45.95;29.40;;;;;;;;;;5029207;28;20045;-71
2021/05/30 05:53:29;;;;;;;53.00;28.95;;;;;;;;;;5027134;28;20017;-71
2021/05/30 05:55:55;;;;;;;51.53;29.75;;;;;;;;;;5025075;28;20040;-70
2021/05/30 05:58:21;;;;;;;48.13;29.80;;;;;;;;;;5026315;28;20167;-70
2021/05/30 06:00:47;;;;;;;47.33;29.40;;;;;;;;;;5026291;28;20018;-71
2021/05/30 06:03:13;;;;;;;48.35;28.58;;;;;;;;;;5027333;28;20030;-70
2021/05/30 06:05:40;;;;;;;44.78;29.30;;;;;;;;;;5020883;28;20048;-70
2021/05/30 06:08:06;;;;;;;45.58;29.25;;;;;;;;;;5029068;28;20171;-71
2021/05/30 06:10:32;;;;;;;41.05;26.92;;;;;;;;;;5029228;28;20040;-70
2021/05/30 06:13:00;;;;;;;51.13;29.13;;;;;;;;;;5029260;28;20843;-71
2021/05/30 06:15:27;;;;;;;47.92;27.65;;;;;;;;;;5028850;28;20776;-71
2021/05/30 06:17:58;;;;;;;43.13;27.13;;;;;;;;;;5028769;28;20416;-72
2021/05/30 06:20:25;;;;;;;;;;;;;;;;;;5027857;28;20048;-71
2021/05/30 06:22:51;;;;;;;42.97;25.38;;;;;;;;;;5026797;28;19909;-71
2021/05/30 06:25:17;;;;;;;44.05;25.80;;;;;;;;;;5028873;28;20083;-71
2021/05/30 06:27:44;;;;;;;44.85;26.33;;;;;;;;;;5027827;28;20025;-71
2021/05/30 06:30:10;;;;;;;42.88;26.45;;;;;;;;;;5020916;28;20040;-71
2021/05/30 06:32:36;;;;;;;42.78;25.65;;;;;;;;;;5026487;28;20026;-71
2021/05/30 06:35:03;;;;;;;35.67;22.77;;;;;;;;;;5028377;28;20032;-70
2021/05/30 06:37:29;;;;;;;35.83;21.65;;;;;;;;;;5029842;28;20040;-70
2021/05/30 06:39:55;;;;;;;35.88;21.48;;;;;;;;;;5029379;28;20113;-71
2021/05/30 06:42:21;;;;;;;37.03;21.98;;;;;;;;;;5028568;28;20029;-71
2021/05/30 06:44:48;;;;;;;36.63;23.73;;;;;;;;;;5033356;28;20025;-71
2021/05/30 06:47:14;;;;;;;41.00;25.98;;;;;;;;;;5027276;28;20022;-70
2021/05/30 06:49:40;;;;;;;37.20;23.85;;;;;;;;;;5028580;28;20029;-70
2021/05/30 06:52:06;;;;;;;35.45;21.40;;;;;;;;;;5029356;28;20021;-70
2021/05/30 06:54:32;;;;;;;35.25;21.13;;;;;;;;;;5030457;28;20021;-70
2021/05/30 06:56:58;;;;;;;35.20;20.80;;;;;;;;;;5031545;28;20030;-69
2021/05/30 06:59:24;;;;;;;33.30;21.52;;;;;;;;;;5030460;28;20048;-70
2021/05/30 07:01:50;;;;;;;31.02;21.17;;;;;;;;;;5025916;28;20025;-71
2021/05/30 07:04:16;;;;;;;38.08;23.73;;;;;;;;;;5032749;28;20045;-69
2021/05/30 07:06:42;;;;;;;42.00;23.00;;;;;;;;;;5033278;28;20057;-71
2021/05/30 07:09:08;;;;;;;31.05;22.77;;;;;;;;;;5032740;28;20025;-69
2021/05/30 07:11:35;;;;;;;32.42;22.02;;;;;;;;;;5033406;28;20029;-71
2021/05/30 07:14:01;;;;;;;32.83;20.38;;;;;;;;;;5030298;28;20056;-70
2021/05/30 07:16:27;;;;;;;29.52;18.30;;;;;;;;;;5032755;28;20482;-71
2021/05/30 07:18:53;;;;;;;33.35;20.10;;;;;;;;;;5030086;28;20633;-71
2021/05/30 07:21:19;;;;;;;40.75;23.30;;;;;;;;;;5025204;28;20040;-70
2021/05/30 07:23:45;;;;;;;33.28;22.50;;;;;;;;;;5022528;28;20034;-71
2021/05/30 07:26:11;;;;;;;32.95;22.05;;;;;;;;;;5029375;28;20060;-71
2021/05/30 07:28:38;;;;;;;39.40;23.52;;;;;;;;;;5026093;28;20128;-70
2021/05/30 07:31:04;;;;;;;36.22;22.60;;;;;;;;;;5029335;28;20029;-70
2021/05/30 07:33:30;;;;;;;32.90;20.98;;;;;;;;;;5029447;28;20017;-71
2021/05/30 07:35:56;;;;;;;29.27;19.63;;;;;;;;;;5025352;28;20025;-70
2021/05/30 07:38:22;;;;;;;33.28;21.90;;;;;;;;;;5029439;28;20021;-70
2021/05/30 07:40:49;;;;;;;33.42;19.70;;;;;;;;;;5027349;28;20057;-70
2021/05/30 07:43:15;;;;;;;30.20;19.48;;;;;;;;;;5027253;28;20075;-71
2021/05/30 07:45:41;;;;;;;30.70;19.88;;;;;;;;;;5028008;28;20112;-70
2021/05/30 07:48:07;;;;;;;29.80;21.17;;;;;;;;;;5023160;28;20080;-71
2021/05/30 07:50:35;;;;;;;27.30;18.42;;;;;;;;;;5027271;28;20025;-70
2021/05/30 07:53:01;;;;;;;37.30;20.08;;;;;;;;;;5026932;28;20095;-69
2021/05/30 07:55:27;;;;;;;32.10;21.65;;;;;;;;;;5022956;28;20022;-70
2021/05/30 07:57:53;;;;;;;35.15;21.40;;;;;;;;;;5024465;28;20033;-69
2021/05/30 08:00:20;;;;;;;34.10;18.67;;;;;;;;;;5025724;28;20033;-69
2021/05/30 08:02:47;;;;;;;33.10;21.42;;;;;;;;;;5024955;28;20131;-69
2021/05/30 08:05:16;;;;;;;28.67;19.58;;;;;;;;;;5028216;28;20041;-71
2021/05/30 08:07:42;;;;;;;31.00;19.70;;;;;;;;;;5023813;28;20040;-69
2021/05/30 08:10:09;;;;;;;30.23;20.00;;;;;;;;;;5029477;28;20171;-68
2021/05/30 08:12:35;;;;;;;30.73;19.17;;;;;;;;;;5023738;28;20512;-69
2021/05/30 08:15:01;;;;;;;31.25;19.60;;;;;;;;;;5028961;28;20095;-70
2021/05/30 08:17:28;;;;;;;29.10;20.63;;;;;;;;;;5021530;28;20033;-69
2021/05/30 08:19:55;;;;;;;34.28;20.20;;;;;;;;;;5025897;28;20024;-70
2021/05/30 08:22:21;;;;;;;28.98;21.50;;;;;;;;;;5021414;28;20120;-71
2021/05/30 08:24:47;;;;;;;32.83;21.05;;;;;;;;;;5023173;28;20055;-69
2021/05/30 08:27:14;;;;;;;29.35;19.33;;;;;;;;;;5023978;28;20028;-71
2021/05/30 08:29:40;;;;;;;31.52;20.90;;;;;;;;;;5033916;28;20038;-69
2021/05/30 08:32:07;;;;;;;30.95;20.67;;;;;;;;;;5022246;28;20035;-70
2021/05/30 08:34:33;;;;;;;29.10;21.80;;;;;;;;;;5022779;28;20049;-69
2021/05/30 08:36:59;;;;;;;28.42;18.65;;;;;;;;;;5024816;28;20025;-71
2021/05/30 08:39:25;;;;;;;29.27;19.75;;;;;;;;;;5021461;28;20054;-69
2021/05/30 08:41:51;;;;;;;30.20;20.65;;;;;;;;;;5021268;28;20033;-70
2021/05/30 08:44:17;;;;;;;28.95;17.80;;;;;;;;;;5020312;28;20018;-70
2021/05/30 08:46:43;;;;;;;26.80;17.35;;;;;;;;;;5024498;28;20041;-70
2021/05/30 08:49:10;;;;;;;30.45;19.08;;;;;;;;;;5024660;28;20519;-70
2021/05/30 08:51:37;;;;;;;32.72;19.42;;;;;;;;;;5023277;28;20033;-71
2021/05/30 08:54:14;;;;;;;31.48;20.70;;;;;;;;;;5020853;28;20479;-70
2021/05/30 08:56:42;;;;;;;32.33;20.15;;;;;;;;;;5037187;28;20076;-69
2021/05/30 08:59:15;;;;;;;29.92;18.33;;;;;;;;;;5026401;28;20068;-69
2021/05/30 09:01:43;;;;;;;37.92;20.33;;;;;;;;;;5024410;28;20136;-69
2021/05/30 09:04:09;;;;;;;30.83;19.60;;;;;;;;;;5021501;28;20543;-70
2021/05/30 09:06:36;;;;;;;31.98;21.25;;;;;;;;;;5022449;28;20029;-69
2021/05/30 09:09:04;;;;;;;35.85;21.58;;;;;;;;;;5024962;28;20028;-70
2021/05/30 09:11:40;;;;;;;27.92;20.50;;;;;;;;;;5020292;28;20032;-70
2021/05/30 09:14:09;;;;;;;28.52;17.88;;;;;;;;;;5022089;28;20087;-69
2021/05/30 09:16:47;;;;;;;33.88;21.73;;;;;;;;;;5026266;28;20029;-73
2021/05/30 09:19:32;;;;;;;35.53;23.90;;;;;;;;;;5022601;28;20028;-71
2021/05/30 09:22:17;;;;;;;33.45;22.60;;;;;;;;;;5011388;28;20068;-70
2021/05/30 09:24:59;;;;;;;29.95;22.27;;;;;;;;;;5019372;28;20021;-74
2021/05/30 09:27:25;;;;;;;;;;;;;;;;;;5024202;28;20030;-70
2021/05/30 09:30:10;;;;;;;35.75;23.02;;;;;;;;;;5024671;28;20454;-72
2021/05/30 09:33:09;;;;;;;39.00;21.90;;;;;;;;;;5017181;28;20100;-69
2021/05/30 09:35:38;;;;;;;29.85;20.42;;;;;;;;;;4997910;28;20029;-69
2021/05/30 09:38:06;;;;;;;32.60;21.95;;;;;;;;;;5027575;28;20044;-69
2021/05/30 09:40:38;;;;;;;36.33;22.13;;;;;;;;;;5024142;28;20026;-71
2021/05/30 09:43:05;;;;;;;35.65;24.73;;;;;;;;;;5025461;28;20455;-71
2021/05/30 09:45:31;;;;;;;34.30;23.48;;;;;;;;;;5022836;28;20043;-72
2021/05/30 09:47:57;;;;;;;34.75;22.83;;;;;;;;;;5022025;28;20104;-68
2021/05/30 09:50:23;;;;;;;40.35;23.38;;;;;;;;;;5025256;28;20029;-69
2021/05/30 09:52:51;;;;;;;33.80;23.92;;;;;;;;;;5022897;28;20051;-70
2021/05/30 09:55:25;;;;;;;46.28;26.88;;;;;;;;;;5025813;28;20017;-69
2021/05/30 09:58:09;;;;;;;34.67;22.80;;;;;;;;;;5020989;28;20017;-69
2021/05/30 10:00:35;;;;;;;40.13;24.85;;;;;;;;;;5024244;28;20021;-69
2021/05/30 10:03:02;;;;;;;40.13;26.75;;;;;;;;;;5020509;28;20057;-70
2021/05/30 10:05:28;;;;;;;46.63;28.35;;;;;;;;;;5024373;28;20060;-69
2021/05/30 10:07:56;;;;;;;39.83;26.48;;;;;;;;;;5022380;28;20489;-70
2021/05/30 10:10:22;;;;;;;46.42;29.55;;;;;;;;;;5026688;28;20519;-68
2021/05/30 10:12:48;;;;;;;44.75;28.33;;;;;;;;;;5018819;28;20030;-69
2021/05/30 10:15:14;;;;;;;47.55;29.90;;;;;;;;;;5023971;28;20105;-68
2021/05/30 10:17:42;;;;;;;41.42;27.00;;;;;;;;;;5023274;28;20030;-70
2021/05/30 10:20:12;;;;;;;46.50;29.27;;;;;;;;;;5026674;28;20018;-68
2021/05/30 10:22:41;;;;;;;49.20;30.83;;;;;;;;;;5019966;28;20108;-68
2021/05/30 10:25:08;;;;;;;47.25;29.25;;;;;;;;;;5018913;28;20034;-68
2021/05/30 10:27:34;;;;;;;45.20;27.98;;;;;;;;;;5022114;28;20075;-69
2021/05/30 10:30:10;;;;;;;43.15;25.70;;;;;;;;;;5024077;28;20044;-68
2021/05/30 10:32:37;;;;;;;49.60;28.42;;;;;;;;;;5023575;28;20026;-68
2021/05/30 10:35:13;;;;;;;44.67;28.30;;;;;;;;;;5025909;28;20030;-68
2021/05/30 10:37:40;;;;;;;44.13;26.90;;;;;;;;;;5021934;28;20087;-68
2021/05/30 10:40:27;;;;;;;44.28;27.33;;;;;;;;;;5023153;28;20107;-69
2021/05/30 10:43:08;;;;;;;42.10;25.23;;;;;;;;;;5021999;28;20037;-68
2021/05/30 10:45:43;;;;;;;44.95;27.42;;;;;;;;;;5024684;28;20049;-67
2021/05/30 10:48:10;;;;;;;40.65;25.67;;;;;;;;;;5025719;28;20224;-68
2021/05/30 10:50:38;;;;;;;39.40;22.77;;;;;;;;;;5026956;28;20030;-66
2021/05/30 10:53:05;;;;;;;44.28;26.48;;;;;;;;;;5021253;28;20072;-68
2021/05/30 10:55:32;;;;;;;42.30;27.13;;;;;;;;;;5025554;28;20096;-69
2021/05/30 10:57:58;;;;;;;35.10;23.85;;;;;;;;;;5026906;28;20353;-68
2021/05/30 11:00:27;;;;;;;41.60;26.20;;;;;;;;;;5023346;28;20505;-68
2021/05/30 11:03:06;;;;;;;40.08;26.30;;;;;;;;;;5022463;28;20037;-68
2021/05/30 11:05:58;;;;;;;39.60;25.15;;;;;;;;;;5023841;28;20412;-68
2021/05/30 11:08:24;;;;;;;;;;;;;;;;;;5023812;28;20044;-68
2021/05/30 11:10:51;;;;;;;42.83;24.67;;;;;;;;;;5024864;28;19968;-68
2021/05/30 11:13:17;;;;;;;40.25;25.27;;;;;;;;;;5018470;28;20110;-68
2021/05/30 11:15:43;;;;;;;39.90;26.80;;;;;;;;;;5024393;28;20029;-67
2021/05/30 11:18:17;;;;;;;38.95;23.38;;;;;;;;;;5027146;28;20022;-68
2021/05/30 11:20:45;;;;;;;47.72;25.77;;;;;;;;;;5024575;28;20565;-68
2021/05/30 11:23:12;;;;;;;43.40;27.55;;;;;;;;;;5023143;28;20521;-69
2021/05/30 11:25:40;;;;;;;43.08;26.63;;;;;;;;;;5025973;28;20030;-68
2021/05/30 11:28:10;;;;;;;46.50;29.95;;;;;;;;;;5026965;28;20504;-68
2021/05/30 11:30:39;;;;;;;45.45;27.63;;;;;;;;;;5029350;28;20041;-68
2021/05/30 11:33:05;;;;;;;47.70;29.52;;;;;;;;;;5022456;28;20025;-68
2021/05/30 11:35:32;;;;;;;42.50;23.98;;;;;;;;;;5030286;28;20535;-68
2021/05/30 11:37:58;;;;;;;44.13;26.25;;;;;;;;;;5027852;28;20021;-68
2021/05/30 11:40:24;;;;;;;48.50;29.20;;;;;;;;;;5027039;28;20041;-68
2021/05/30 11:42:51;;;;;;;52.58;29.58;;;;;;;;;;5024701;28;20040;-68
2021/05/30 11:45:34;;;;;;;47.50;28.25;;;;;;;;;;5028039;28;20061;-68
2021/05/30 11:48:06;;;;;;;49.00;27.73;;;;;;;;;;5027271;28;20029;-67
2021/05/30 11:50:37;;;;;;;43.42;27.27;;;;;;;;;;5025117;28;20021;-67
2021/05/30 11:53:10;;;;;;;41.97;26.85;;;;;;;;;;5024874;28;20022;-68
2021/05/30 11:55:38;;;;;;;49.53;30.13;;;;;;;;;;5024282;28;20049;-68
2021/05/30 11:58:05;;;;;;;52.58;30.02;;;;;;;;;;5028682;28;20400;-68
2021/05/30 12:00:31;;;;;;;45.72;25.73;;;;;;;;;;5028520;28;20435;-67
2021/05/30 12:02:58;;;;;;;41.10;25.00;;;;;;;;;;5028741;28;20112;-68
2021/05/30 12:05:24;;;;;;;35.58;23.38;;;;;;;;;;5029512;28;20310;-68
2021/05/30 12:07:51;;;;;;;37.83;22.73;;;;;;;;;;5028752;28;20429;-67
2021/05/30 12:10:17;;;;;;;38.22;23.52;;;;;;;;;;5030208;28;20026;-67
2021/05/30 12:12:43;;;;;;;38.55;22.20;;;;;;;;;;5024569;28;20117;-66
2021/05/30 12:15:17;;;;;;;32.85;22.35;;;;;;;;;;5028621;28;20579;-67
2021/05/30 12:17:55;;;;;;;34.92;21.13;;;;;;;;;;5028727;28;20240;-67
2021/05/30 12:20:25;;;;;;;34.00;21.25;;;;;;;;;;5027666;28;20504;-68
2021/05/30 12:22:51;;;;;;;34.47;20.33;;;;;;;;;;5024278;28;20504;-67
2021/05/30 12:25:18;;;;;;;37.65;21.52;;;;;;;;;;5025198;28;20030;-67
2021/05/30 12:27:44;;;;;;;34.03;21.70;;;;;;;;;;5027995;28;20493;-67
2021/05/30 12:30:14;;;;;;;40.67;21.88;;;;;;;;;;5029531;28;20377;-67
2021/05/30 12:32:48;;;;;;;39.70;22.92;;;;;;;;;;5022869;28;20021;-68
2021/05/30 12:35:14;;;;;;;39.25;22.00;;;;;;;;;;5024737;28;20033;-67
2021/05/30 12:37:40;;;;;;;35.92;21.75;;;;;;;;;;5024754;28;20018;-66
2021/05/30 12:40:08;;;;;;;37.90;23.95;;;;;;;;;;5025698;28;20121;-67
2021/05/30 12:42:34;;;;;;;33.88;22.48;;;;;;;;;;5019488;28;20061;-68
2021/05/30 12:45:05;;;;;;;41.42;22.17;;;;;;;;;;5021128;28;20052;-65
2021/05/30 12:47:39;;;;;;;31.75;19.63;;;;;;;;;;5025341;28;20059;-67
2021/05/30 12:50:06;;;;;;;34.47;22.95;;;;;;;;;;5023393;28;20044;-66
2021/05/30 12:52:48;;;;;;;39.15;22.55;;;;;;;;;;5022334;28;20029;-67
2021/05/30 12:55:15;;;;;;;36.55;21.65;;;;;;;;;;5021142;28;20067;-67
2021/05/30 12:57:41;;;;;;;36.85;21.60;;;;;;;;;;5023369;28;20634;-67
2021/05/30 13:00:12;;;;;;;34.60;20.23;;;;;;;;;;5027253;28;20017;-66
2021/05/30 13:02:39;;;;;;;35.67;21.23;;;;;;;;;;5036781;28;20037;-68
2021/05/30 13:05:06;;;;;;;40.95;21.23;;;;;;;;;;5023742;28;20286;-67
2021/05/30 13:07:33;;;;;;;35.03;20.42;;;;;;;;;;5025883;28;20036;-67
2021/05/30 13:10:03;;;;;;;36.25;21.48;;;;;;;;;;5025442;28;20563;-69
2021/05/30 13:12:36;;;;;;;33.22;21.25;;;;;;;;;;5023061;28;20130;-67
2021/05/30 13:15:05;;;;;;;34.38;23.02;;;;;;;;;;5026155;28;20044;-68
2021/05/30 13:17:32;;;;;;;26.02;16.10;;;;;;;;;;5026520;28;20056;-67
2021/05/30 13:19:58;;;;;;;31.23;17.67;;;;;;;;;;5025819;28;20030;-67
2021/05/30 13:22:25;;;;;;;30.38;18.60;;;;;;;;;;5020737;28;20025;-67
2021/05/30 13:24:51;;;;;;;35.03;21.75;;;;;;;;;;5025949;28;20329;-68
2021/05/30 13:27:26;;;;;;;32.05;19.48;;;;;;;;;;5027069;28;20018;-68
2021/05/30 13:30:04;;;;;;;33.80;19.42;;;;;;;;;;5027761;28;20496;-66
2021/05/30 13:32:30;;;;;;;34.72;20.92;;;;;;;;;;5023512;28;20032;-68
2021/05/30 13:34:56;;;;;;;31.38;22.42;;;;;;;;;;5026585;28;20033;-67
2021/05/30 13:37:22;;;;;;;32.90;19.52;;;;;;;;;;5024307;28;20033;-67
2021/05/30 13:39:48;;;;;;;37.92;20.15;;;;;;;;;;5026053;28;20029;-66
2021/05/30 13:42:14;;;;;;;34.40;18.60;;;;;;;;;;5022060;28;20037;-67
2021/05/30 13:44:40;;;;;;;32.88;18.55;;;;;;;;;;5028131;28;20029;-66
2021/05/30 13:47:06;;;;;;;41.95;23.38;;;;;;;;;;5025546;28;20496;-66
2021/05/30 13:49:32;;;;;;;34.63;20.52;;;;;;;;;;5024461;28;20493;-65
2021/05/30 13:51:58;;;;;;;37.90;24.10;;;;;;;;;;5022692;28;20030;-66
2021/05/30 13:54:24;;;;;;;38.35;24.55;;;;;;;;;;5024728;28;20026;-67
2021/05/30 13:56:50;;;;;;;39.45;23.58;;;;;;;;;;5027078;28;20026;-67
2021/05/30 13:59:17;;;;;;;39.72;23.27;;;;;;;;;;5025763;28;20021;-67
2021/05/30 14:01:44;;;;;;;42.90;24.02;;;;;;;;;;5024576;28;20051;-66
2021/05/30 14:04:10;;;;;;;37.63;24.05;;;;;;;;;;5025528;28;20029;-67
2021/05/30 14:06:37;;;;;;;38.75;23.20;;;;;;;;;;5024577;28;20481;-67
2021/05/30 14:09:03;;;;;;;43.63;23.95;;;;;;;;;;5025850;28;20032;-66
2021/05/30 14:11:30;;;;;;;39.50;23.67;;;;;;;;;;5027046;28;20021;-67
2021/05/30 14:13:56;;;;;;;33.78;21.20;;;;;;;;;;5023108;28;20025;-67
2021/05/30 14:16:22;;;;;;;41.28;23.70;;;;;;;;;;5025859;28;20028;-68
2021/05/30 14:18:48;;;;;;;37.72;22.60;;;;;;;;;;5025181;28;20132;-66
2021/05/30 14:21:15;;;;;;;39.55;20.77;;;;;;;;;;5023313;28;20111;-67